Time;durP1;ratioP1;P1;durP2;ratioP2;P2;SDS_P1;SDS_P2;PMS_P1;PMS_P2;Temp;Humidity;BMP_temperature;BMP_pressure;BME280_temperature;BME280_humidity;BME280_pressure;Samples;Min_cycle;Max_cycle;Signal;HPM_P1;HPM_P2
2022/07/14 00:01:17;;;;;;;3.67;3.27;;;20.20;1.00;;;20.20;58.38;101124.03;5067426;28;20484;-71
2022/07/14 00:03:48;;;;;;;4.13;3.77;;;20.10;1.00;;;20.25;58.13;101126.81;5067589;28;20433;-72
2022/07/14 00:06:18;;;;;;;5.20;4.70;;;20.00;1.00;;;20.18;58.47;101120.72;5068428;28;20488;-74
2022/07/14 00:08:47;;;;;;;3.80;3.40;;;20.00;1.00;;;20.13;58.44;101120.69;5069188;28;20793;-71
2022/07/14 00:11:16;;;;;;;4.33;3.83;;;19.90;1.00;;;20.07;58.77;101118.97;5068896;28;20453;-70
2022/07/14 00:13:45;;;;;;;5.07;3.90;;;19.90;1.00;;;20.00;59.06;101126.56;5062577;28;20412;-72
2022/07/14 00:16:14;;;;;;;4.13;3.63;;;19.90;1.00;;;19.93;59.33;101120.47;5066096;28;20401;-72
2022/07/14 00:18:44;;;;;;;4.10;3.37;;;19.80;1.00;;;19.91;59.49;101125.38;5063647;28;20426;-71
2022/07/14 00:21:16;;;;;;;4.57;4.17;;;19.70;1.00;;;19.84;59.56;101119.28;5064143;28;20434;-70
2022/07/14 00:23:48;;;;;;;5.47;3.97;;;19.70;1.00;;;19.79;59.86;101121.97;5073725;28;20499;-73
2022/07/14 00:26:17;;;;;;;3.20;2.70;;;19.60;1.00;;;19.78;59.80;101125.78;5073411;28;20454;-70
2022/07/14 00:28:46;;;;;;;4.87;4.00;;;19.60;1.00;;;19.71;59.91;101116.91;5073505;28;20917;-70
2022/07/14 00:31:15;;;;;;;3.93;3.57;;;19.50;1.00;;;19.60;60.32;101128.88;5073873;28;20440;-71
2022/07/14 00:33:44;;;;;;;3.70;3.00;;;19.40;1.00;;;19.56;60.67;101123.03;5074326;28;20420;-72
2022/07/14 00:36:15;;;;;;;4.00;3.67;;;19.40;1.00;;;19.50;60.91;101129.59;5073834;28;20683;-72
2022/07/14 00:38:44;;;;;;;3.30;3.00;;;19.30;1.00;;;19.38;61.05;101129.66;5073643;28;20414;-72
2022/07/14 00:41:14;;;;;;;4.40;4.00;;;19.20;1.00;;;19.35;61.37;101127.44;5071843;28;20537;-72
2022/07/14 00:43:43;;;;;;;4.60;3.27;;;19.20;1.00;;;19.30;61.51;101124.63;5072865;28;20488;-72
2022/07/14 00:46:12;;;;;;;4.40;3.97;;;19.10;1.00;;;19.26;61.43;101128.97;5072289;28;20729;-71
2022/07/14 00:48:41;;;;;;;5.60;3.17;;;19.10;1.00;;;19.18;61.70;101137.59;5072437;28;20415;-71
2022/07/14 00:51:11;;;;;;;3.63;3.33;;;19.10;1.00;;;19.10;61.97;101140.81;5073279;28;20422;-72
2022/07/14 00:53:42;;;;;;;7.73;3.23;;;19.00;1.00;;;19.05;61.78;101140.72;5073602;28;20489;-72
2022/07/14 00:56:11;;;;;;;3.73;3.33;;;18.90;1.00;;;19.09;62.18;101144.63;5073164;28;20410;-72
2022/07/14 00:58:40;;;;;;;4.50;3.40;;;18.90;1.00;;;19.06;62.22;101145.13;5072973;28;20764;-72
2022/07/14 01:01:09;;;;;;;3.23;2.87;;;18.90;1.00;;;19.00;62.42;101146.13;5072350;28;20430;-72
2022/07/14 01:03:39;;;;;;;4.50;3.67;;;18.80;9.60;;;19.02;62.55;101142.06;5072528;28;20450;-72
2022/07/14 01:06:08;;;;;;;3.90;3.50;;;18.80;64.10;;;19.06;62.20;101150.63;5072048;28;20457;-72
2022/07/14 01:08:37;;;;;;;5.27;3.93;;;18.80;1.00;;;19.07;62.27;101141.31;5070707;28;20470;-72
2022/07/14 01:11:09;;;;;;;4.40;3.53;;;18.80;99.90;;;18.95;62.60;101146.88;5070759;28;20936;-72
2022/07/14 01:13:39;;;;;;;3.97;3.67;;;18.70;1.00;;;18.87;63.08;101151.97;5072582;28;20477;-73
2022/07/14 01:16:08;;;;;;;3.53;2.70;;;18.70;1.00;;;18.85;63.01;101146.72;5094752;28;20952;-71
2022/07/14 01:18:37;;;;;;;4.13;3.13;;;18.70;1.00;;;18.80;62.70;101149.41;5072160;28;20861;-73
2022/07/14 01:21:10;;;;;;;4.07;2.30;;;18.60;1.00;;;18.75;62.63;101153.97;5072657;28;20437;-72
2022/07/14 01:23:39;;;;;;;2.47;2.27;;;18.60;1.00;;;18.71;61.35;101152.81;5072427;28;20446;-72
2022/07/14 01:26:09;;;;;;;4.73;2.87;;;18.50;1.00;;;18.70;60.63;101162.94;5072163;28;20458;-72
2022/07/14 01:28:38;;;;;;;5.10;2.30;;;18.50;99.90;;;18.69;60.63;101160.47;5070994;28;20458;-72
2022/07/14 01:31:07;;;;;;;2.50;2.07;;;18.50;90.60;;;18.57;62.00;101155.06;5071704;28;20426;-71
2022/07/14 01:33:37;;;;;;;9.27;3.53;;;18.40;1.00;;;18.51;62.34;101165.06;5072149;28;20451;-72
2022/07/14 01:36:07;;;;;;;5.63;2.40;;;18.40;1.00;;;18.49;62.81;101163.66;5070884;28;20426;-72
2022/07/14 01:38:37;;;;;;;4.47;2.40;;;18.30;1.00;;;18.41;62.95;101170.38;5072801;28;20950;-71
2022/07/14 01:41:06;;;;;;;3.80;2.50;;;18.20;47.10;;;18.34;63.04;101169.69;5072561;28;20426;-71
2022/07/14 01:43:36;;;;;;;2.77;2.20;;;18.20;1.00;;;18.24;63.22;101161.31;5072913;28;20960;-72
2022/07/14 01:46:08;;;;;;;3.30;2.43;;;18.10;64.00;;;18.17;63.20;101166.09;5071539;28;20853;-72
2022/07/14 01:48:38;;;;;;;3.47;2.40;;;18.00;65.20;;;18.11;63.54;101162.41;5071239;28;20434;-70
2022/07/14 01:51:08;;;;;;;2.63;2.20;;;18.00;67.10;;;18.09;63.15;101167.31;5071259;28;20438;-72
2022/07/14 01:53:40;;;;;;;6.97;3.80;;;18.00;66.60;;;18.06;63.16;101167.78;5071417;28;21119;-72
2022/07/14 01:56:10;;;;;;;4.33;2.40;;;17.90;66.20;;;17.96;63.13;101167.59;5071648;28;20740;-72
2022/07/14 01:58:40;;;;;;;3.10;2.20;;;17.80;66.80;;;17.90;63.53;101163.13;5071433;28;20426;-72
2022/07/14 02:04:02;;;;;;;4.10;2.27;;;17.70;70.50;;;17.75;63.96;101174.59;5088876;28;20438;-72
2022/07/14 02:06:32;;;;;;;3.60;2.23;;;17.60;73.10;;;17.71;63.93;101176.16;5077967;28;20444;-72
2022/07/14 02:09:03;;;;;;;3.50;2.90;;;17.60;73.80;;;17.66;63.89;101186.16;5072448;28;20426;-71
2022/07/14 02:14:20;;;;;;;2.63;1.97;;;17.40;74.20;;;17.50;63.96;101190.44;5071616;28;20448;-70
2022/07/14 02:16:49;;;;;;;2.40;1.83;;;17.30;74.40;;;17.48;63.87;101192.56;5073138;28;20529;-70
2022/07/14 02:19:18;;;;;;;2.50;2.10;;;17.30;74.80;;;17.41;64.08;101194.63;5074132;28;20909;-71
2022/07/14 02:21:48;;;;;;;3.00;2.10;;;17.30;75.90;;;17.35;64.11;101199.13;5071325;28;20495;-70
2022/07/14 02:24:20;;;;;;;2.30;1.87;;;17.20;76.50;;;17.31;64.09;101191.66;5070385;28;20448;-70
2022/07/14 02:26:51;;;;;;;2.03;1.63;;;17.20;76.40;;;17.18;64.45;101191.91;5066266;28;20474;-70
2022/07/14 02:29:21;;;;;;;4.53;1.80;;;17.10;78.50;;;17.18;64.45;101202.84;5069167;28;20437;-71
2022/07/14 02:31:51;;;;;;;8.20;1.80;;;17.00;79.80;;;17.12;64.60;101203.78;5072035;28;20466;-71
2022/07/14 02:34:20;;;;;;;2.97;1.73;;;17.00;81.30;;;17.02;64.82;101209.03;5071394;28;20515;-71
2022/07/14 02:36:53;;;;;;;2.83;1.30;;;16.90;82.60;;;17.03;64.77;101200.59;5071089;28;20513;-71
2022/07/14 02:39:24;;;;;;;2.40;1.73;;;16.90;84.00;;;16.92;65.33;101202.25;5070046;28;20445;-71
2022/07/14 02:41:54;;;;;;;2.00;1.67;;;16.80;86.80;;;16.89;65.30;101205.44;5070589;28;20949;-71
2022/07/14 02:44:23;;;;;;;4.70;1.83;;;16.80;88.10;;;16.82;65.49;101210.19;5070769;28;20488;-71
2022/07/14 02:46:52;;;;;;;3.50;1.97;;;16.70;90.40;;;16.81;65.63;101199.47;5069449;28;20528;-70
2022/07/14 02:49:21;;;;;;;9.23;2.00;;;16.70;91.00;;;16.73;65.75;101211.59;5069350;28;20446;-70
2022/07/14 02:51:50;;;;;;;2.10;1.67;;;16.60;91.70;;;16.67;65.99;101214.44;5069166;28;20430;-70
2022/07/14 02:54:19;;;;;;;2.80;1.63;;;16.50;92.80;;;16.66;65.92;101224.53;5070415;28;20427;-71
2022/07/14 02:56:51;;;;;;;3.10;1.40;;;16.50;93.80;;;16.58;66.17;101229.47;5069460;28;20953;-71
2022/07/14 02:59:21;;;;;;;3.53;1.87;;;16.50;93.90;;;16.49;66.38;101224.34;5069576;28;20442;-71
2022/07/14 03:01:52;;;;;;;3.37;1.87;;;16.40;94.50;;;16.46;66.52;101227.53;5068290;28;20449;-71
2022/07/14 03:04:23;;;;;;;5.60;2.17;;;16.30;95.10;;;16.41;66.63;101223.84;5069189;28;20799;-71
2022/07/14 03:06:56;;;;;;;5.30;2.20;;;16.30;96.00;;;16.39;66.44;101217.78;5069428;28;20442;-71
2022/07/14 03:09:27;;;;;;;3.30;1.83;;;16.30;96.00;;;16.26;66.96;101226.16;5069012;28;20452;-71
2022/07/14 03:11:58;;;;;;;5.40;1.90;;;16.20;96.80;;;16.27;66.69;101227.81;5070004;28;20445;-71
2022/07/14 03:14:28;;;;;;;3.07;2.00;;;16.10;97.00;;;16.17;67.10;101228.38;5070445;28;20895;-70
2022/07/14 03:16:57;;;;;;;2.60;1.47;;;16.10;97.50;;;16.15;67.03;101229.69;5069980;28;20445;-71
2022/07/14 03:19:29;;;;;;;4.27;2.47;;;16.00;98.00;;;16.16;67.14;101225.88;5070249;28;20445;-71
2022/07/14 03:21:59;;;;;;;3.40;2.13;;;16.00;98.30;;;16.05;67.44;101230.22;5070775;28;21007;-71
2022/07/14 03:24:31;;;;;;;4.50;2.40;;;15.90;99.20;;;16.04;67.46;101229.38;5077801;28;20973;-70
2022/07/14 03:27:02;;;;;;;3.63;1.73;;;15.90;99.40;;;16.07;67.52;101234.38;5068624;28;20441;-72
2022/07/14 03:29:32;;;;;;;3.60;1.67;;;15.90;99.70;;;16.02;67.56;101233.44;5068787;28;20541;-71
2022/07/14 03:32:01;;;;;;;5.37;1.50;;;15.90;99.80;;;15.94;67.43;101240.00;5069309;28;20476;-71
2022/07/14 03:34:32;;;;;;;8.03;2.03;;;15.80;99.90;;;16.01;67.41;101240.78;5071467;28;20840;-71
2022/07/14 03:37:02;;;;;;;6.57;1.80;;;15.80;99.90;;;16.05;67.17;101241.97;5065899;28;20774;-71
2022/07/14 03:39:41;;;;;;;4.57;1.87;;;15.90;99.90;;;16.04;67.14;101251.22;5068620;28;20851;-71
2022/07/14 03:42:11;;;;;;;5.10;2.00;;;15.90;99.60;;;15.96;67.40;101259.75;5072179;28;20517;-72
2022/07/14 03:44:41;;;;;;;3.30;1.90;;;15.80;99.90;;;16.20;66.94;101265.31;5073460;28;20434;-72
2022/07/14 03:47:10;;;;;;;10.83;2.47;;;15.90;99.90;;;16.44;65.71;101267.91;5072431;28;20558;-71
2022/07/14 03:49:39;;;;;;;8.80;1.93;;;16.00;98.20;;;17.21;63.52;101257.06;5073171;28;20885;-71
2022/07/14 03:52:08;;;;;;;6.50;1.87;;;16.40;95.00;;;17.65;61.71;101253.75;5073935;28;20435;-70
2022/07/14 03:54:39;;;;;;;4.37;1.73;;;16.70;90.60;;;17.54;61.80;101257.28;5090151;28;20712;-71
2022/07/14 03:57:08;;;;;;;8.13;2.57;;;16.90;83.80;;;17.31;62.34;101268.25;5074238;28;20466;-71
2022/07/14 03:59:42;;;;;;;5.77;1.87;;;16.90;81.50;;;17.32;62.40;101261.72;5064298;28;20476;-71
2022/07/14 04:02:15;;;;;;;7.43;1.83;;;16.90;80.30;;;17.38;62.17;101263.47;5068247;28;20544;-72
2022/07/14 04:04:45;;;;;;;5.67;1.90;;;16.90;79.20;;;17.16;62.79;101271.44;5068577;28;20533;-72
2022/07/14 04:07:14;;;;;;;3.73;1.80;;;16.80;80.50;;;17.35;62.14;101274.91;5068242;28;20470;-70
2022/07/14 04:09:43;;;;;;;6.30;2.10;;;16.90;80.00;;;16.69;64.15;101265.06;5068518;28;20434;-71
2022/07/14 04:12:14;;;;;;;6.33;3.13;;;16.60;81.40;;;16.34;65.64;101266.81;5068586;28;20461;-71
2022/07/14 04:14:50;;;;;;;5.07;2.13;;;16.30;89.40;;;16.24;65.99;101269.25;5061387;28;20640;-70
2022/07/14 04:17:19;;;;;;;4.20;1.83;;;16.20;92.90;;;17.21;63.52;101266.09;5068314;28;20860;-71
2022/07/14 04:19:48;;;;;;;3.57;1.57;;;16.40;93.80;;;17.72;61.08;101265.38;5068655;28;20497;-71
2022/07/14 04:22:17;;;;;;;2.90;1.53;;;16.70;86.40;;;17.45;62.07;101266.94;5067918;28;20560;-71
2022/07/14 04:25:09;;;;;;;3.37;1.67;;;16.80;82.70;;;18.14;60.13;101273.41;5054119;28;20478;-71
2022/07/14 04:27:38;;;;;;;6.33;2.23;;;17.10;75.70;;;19.17;57.24;101277.81;5067835;28;20770;-71
2022/07/14 04:30:13;;;;;;;3.73;1.80;;;17.60;67.10;;;19.27;56.26;101283.41;5082470;22;20497;-70
2022/07/14 04:32:43;;;;;;;2.00;1.63;;;18.10;55.60;;;19.74;55.12;101283.91;5068098;28;20427;-70
2022/07/14 04:35:15;;;;;;;7.20;2.00;;;18.40;50.10;;;20.43;52.77;101295.25;5070986;28;20446;-70
2022/07/14 04:37:44;;;;;;;4.40;1.80;;;19.00;43.10;;;21.15;51.31;101280.06;5066202;28;20411;-70
2022/07/14 04:40:22;;;;;;;9.03;2.70;;;19.30;40.10;;;21.55;50.29;101275.91;5068807;28;20469;-70
2022/07/14 04:45:40;;;;;;;5.20;1.67;;;20.20;32.00;;;22.28;47.98;101282.38;5042305;28;20444;-73
2022/07/14 04:48:09;;;;;;;7.97;2.20;;;20.30;28.90;;;23.32;46.25;101277.31;5005797;28;21181;-74
2022/07/14 04:53:25;;;;;;;6.17;2.50;;;20.90;24.40;;;22.81;47.07;101275.63;5021935;28;20471;-71
2022/07/14 04:56:10;;;;;;;4.13;1.73;;;21.10;23.70;;;22.08;47.73;101285.88;5028643;28;20406;-72
2022/07/14 04:58:45;;;;;;;3.77;1.57;;;21.00;21.40;;;21.51;49.19;101277.53;5026967;28;20418;-73
2022/07/14 05:01:17;;;;;;;2.87;1.40;;;20.60;22.40;;;22.74;46.67;101278.66;5027075;28;20562;-72
2022/07/14 05:03:47;;;;;;;3.40;2.23;;;20.80;22.30;;;22.83;46.37;101285.28;5026651;28;20467;-72
2022/07/14 05:06:17;;;;;;;3.83;1.53;;;21.10;19.40;;;22.75;46.47;101285.03;5028619;28;20447;-72
2022/07/14 05:08:48;;;;;;;3.47;1.93;;;21.20;1.00;;;22.78;46.34;101281.69;5042613;28;20451;-72
2022/07/14 05:11:18;;;;;;;5.67;2.20;;;21.20;1.00;;;22.60;46.17;101280.25;5026787;28;20954;-72
2022/07/14 05:13:47;;;;;;;4.43;1.17;;;21.20;1.00;;;22.13;47.73;101276.78;5030360;28;20434;-71
2022/07/14 05:16:17;;;;;;;5.50;2.47;;;20.90;1.00;;;22.71;46.34;101275.59;5033042;28;20453;-72
2022/07/14 05:18:47;;;;;;;5.20;1.40;;;21.20;1.00;;;23.98;44.28;101273.56;5030221;28;20448;-74
2022/07/14 05:21:17;;;;;;;4.77;1.77;;;21.60;1.00;;;22.51;46.68;101279.16;5029892;28;20452;-74
2022/07/14 05:23:46;;;;;;;3.53;1.90;;;21.20;1.00;;;23.62;44.63;101292.22;5031505;28;20904;-72
2022/07/14 05:26:17;;;;;;;5.17;1.90;;;21.50;1.00;;;22.66;46.26;101287.44;5038291;28;20475;-72
2022/07/14 05:28:46;;;;;;;3.70;1.40;;;21.40;1.00;;;21.79;48.59;101293.69;5029242;28;20464;-72
2022/07/14 05:31:17;;;;;;;13.10;2.47;;;20.90;1.00;;;21.55;49.34;101297.94;5036144;28;20933;-72
2022/07/14 05:33:49;;;;;;;3.87;1.30;;;20.70;1.00;;;22.60;47.22;101296.81;5036747;28;20459;-73
2022/07/14 05:36:21;;;;;;;7.03;1.70;;;20.90;1.00;;;23.28;45.61;101297.47;5030444;28;20513;-72
2022/07/14 05:38:51;;;;;;;5.03;1.57;;;20.90;1.00;;;22.33;47.43;101296.16;5032215;28;20407;-72
2022/07/14 05:41:20;;;;;;;6.30;1.67;;;20.80;1.00;;;20.01;52.16;101289.47;5031127;28;20411;-72
2022/07/14 05:43:50;;;;;;;10.63;1.97;;;19.90;1.00;;;18.66;56.10;101290.63;5030987;28;20684;-72
2022/07/14 05:46:20;;;;;;;6.50;2.07;;;18.90;1.00;;;18.11;57.89;101307.56;5030001;28;20958;-72
2022/07/14 05:48:50;;;;;;;8.73;1.83;;;18.30;1.00;;;17.63;59.64;101294.19;5030276;28;20449;-72
2022/07/14 05:51:22;;;;;;;5.77;1.57;;;17.80;1.00;;;17.52;60.66;101297.75;5034206;28;20448;-72
2022/07/14 05:53:54;;;;;;;8.23;2.37;;;17.50;1.00;;;17.58;60.81;101302.25;5029495;28;20463;-72
2022/07/14 05:56:26;;;;;;;6.33;1.77;;;17.40;1.00;;;17.76;60.59;101304.91;5030172;28;20554;-72
2022/07/14 05:58:55;;;;;;;5.00;1.63;;;17.50;1.00;;;18.08;59.84;101307.22;5032038;28;20539;-72
2022/07/14 06:01:26;;;;;;;3.20;1.60;;;17.80;1.00;;;18.07;59.63;101300.91;5030521;28;20428;-73
2022/07/14 06:03:57;;;;;;;2.03;1.10;;;17.80;1.00;;;17.85;59.65;101297.16;5029597;28;20467;-73
2022/07/14 06:06:27;;;;;;;7.17;2.77;;;17.80;1.00;;;17.70;60.53;101294.91;5029802;28;20476;-72
2022/07/14 06:08:56;;;;;;;3.60;1.57;;;17.60;1.00;;;18.00;59.95;101311.19;5031627;28;20480;-72
2022/07/14 06:11:27;;;;;;;9.07;2.30;;;17.70;1.00;;;17.73;60.61;101315.50;5028928;28;20446;-72
2022/07/14 06:13:56;;;;;;;5.43;2.47;;;17.60;1.00;;;17.78;60.21;101313.72;5029704;28;20559;-72
2022/07/14 06:16:28;;;;;;;5.73;1.50;;;17.60;1.00;;;17.73;60.45;101310.84;5025401;28;20536;-71
2022/07/14 06:18:58;;;;;;;4.60;1.83;;;17.60;1.00;;;17.75;60.54;101311.47;5032417;28;20440;-70
2022/07/14 06:21:32;;;;;;;7.27;2.60;;;17.60;1.00;;;18.12;59.55;101308.41;5046153;28;20816;-71
2022/07/14 06:24:01;;;;;;;7.43;2.20;;;17.70;1.00;;;18.53;58.13;101321.03;5033166;28;20439;-72
2022/07/14 06:26:31;;;;;;;4.13;1.90;;;18.00;1.00;;;18.47;58.75;101314.63;5031426;28;20466;-71
2022/07/14 06:29:00;;;;;;;7.87;2.10;;;18.00;1.00;;;17.87;59.62;101305.13;5029162;28;20484;-71
2022/07/14 06:31:34;;;;;;;4.50;1.80;;;17.80;1.00;;;17.89;59.70;101302.97;5028338;28;20436;-71
2022/07/14 06:34:06;;;;;;;5.43;1.73;;;17.60;1.00;;;17.98;59.61;101310.59;5028744;28;20968;-71
2022/07/14 06:37:04;;;;;;;4.23;1.80;;;17.70;1.00;;;17.88;59.38;101312.25;5021047;28;20444;-71
2022/07/14 06:39:35;;;;;;;2.50;1.80;;;17.60;1.00;;;18.10;57.90;101305.94;5045558;28;20875;-72
2022/07/14 06:42:05;;;;;;;2.97;1.47;;;17.80;1.00;;;18.04;57.82;101309.63;5028818;28;20559;-71
2022/07/14 06:44:42;;;;;;;3.10;1.63;;;17.70;1.00;;;17.69;59.16;101320.63;5040516;28;20430;-73
2022/07/14 06:47:12;;;;;;;4.70;1.77;;;17.60;1.00;;;18.20;57.83;101313.53;5028543;28;20443;-70
2022/07/14 06:49:45;;;;;;;4.17;1.70;;;17.80;1.00;;;18.20;56.39;101319.00;5034266;28;20467;-71
2022/07/14 06:52:16;;;;;;;5.20;1.80;;;17.90;1.00;;;18.01;56.88;101320.25;5028905;28;20993;-72
2022/07/14 06:54:45;;;;;;;5.30;1.73;;;17.80;1.00;;;17.85;57.23;101319.06;5034411;28;20447;-72
2022/07/14 06:57:14;;;;;;;6.90;2.00;;;17.70;1.00;;;18.11;55.56;101317.69;5032960;28;20450;-72
2022/07/14 06:59:43;;;;;;;2.43;2.03;;;17.80;1.00;;;18.10;55.34;101316.88;5024784;28;20444;-73
2022/07/14 07:02:13;;;;;;;5.90;1.57;;;17.90;1.00;;;18.28;54.02;101306.81;5029670;28;20994;-72
2022/07/14 07:04:43;;;;;;;2.57;1.77;;;18.00;1.00;;;18.51;54.07;101309.47;5029616;28;20972;-75
2022/07/14 07:07:11;;;;;;;4.60;1.33;;;18.20;1.00;;;18.60;52.99;101311.59;5029887;28;20472;-73
2022/07/14 07:09:40;;;;;;;4.43;1.60;;;18.40;1.00;;;18.23;54.13;101318.50;5029121;28;20483;-72
2022/07/14 07:12:09;;;;;;;9.03;1.97;;;18.20;1.00;;;17.99;54.63;101314.16;5029922;28;20452;-72
2022/07/14 07:14:38;;;;;;;8.63;2.13;;;18.10;1.00;;;17.90;55.35;101302.75;5029621;28;20531;-72
2022/07/14 07:17:07;;;;;;;2.83;1.20;;;17.80;1.00;;;18.30;52.68;101293.72;5029635;28;20437;-72
2022/07/14 07:19:37;;;;;;;1.90;1.30;;;18.00;1.00;;;18.62;51.66;101293.03;5029141;28;20848;-72
2022/07/14 07:22:06;;;;;;;5.33;1.73;;;18.30;1.00;;;18.92;51.17;101292.75;5029342;28;20434;-72
2022/07/14 07:24:35;;;;;;;4.80;1.50;;;18.60;1.00;;;18.91;50.83;101298.47;5029426;28;20436;-73
2022/07/14 07:27:05;;;;;;;4.97;1.53;;;18.70;1.00;;;18.62;51.97;101301.25;5033662;28;20436;-75
2022/07/14 07:29:34;;;;;;;6.20;1.30;;;18.60;1.00;;;18.37;52.97;101295.22;5035624;28;20442;-73
2022/07/14 07:32:03;;;;;;;8.07;1.30;;;18.40;1.00;;;18.39;52.29;101284.88;5034287;28;20498;-71
2022/07/14 07:34:33;;;;;;;4.90;1.67;;;18.40;1.00;;;18.62;51.46;101279.31;5034931;28;20436;-72
2022/07/14 07:37:03;;;;;;;3.20;1.27;;;18.50;1.00;;;18.76;51.11;101268.03;5038228;28;20432;-72
2022/07/14 07:39:53;;;;;;;2.63;1.17;;;18.60;1.00;;;18.77;51.79;101272.44;5033686;28;20428;-72
2022/07/14 07:42:22;;;;;;;9.37;2.00;;;18.60;1.00;;;18.85;51.70;101269.28;5028632;28;20543;-72
2022/07/14 07:44:51;;;;;;;8.70;1.30;;;18.70;1.00;;;18.97;51.94;101279.13;5029072;28;20444;-74
2022/07/14 07:47:20;;;;;;;2.23;1.13;;;18.80;1.00;;;18.79;51.41;101264.78;5023694;28;20436;-72
2022/07/14 07:49:49;;;;;;;2.63;1.20;;;18.70;1.00;;;19.09;49.97;101268.88;5028808;28;20467;-73
2022/07/14 07:52:20;;;;;;;4.33;1.30;;;18.90;1.00;;;19.48;50.14;101253.34;5028870;28;20434;-73
2022/07/14 07:54:49;;;;;;;3.63;2.40;;;19.20;1.00;;;19.65;49.23;101255.22;5022425;28;20941;-72
2022/07/14 07:57:39;;;;;;;2.60;1.10;;;19.40;1.00;;;19.09;50.13;101260.66;5028664;28;20498;-74
2022/07/14 08:00:10;;;;;;;4.60;1.93;;;19.20;1.00;;;19.15;49.79;101258.00;5025021;28;20501;-75
2022/07/14 08:02:48;;;;;;;7.97;1.40;;;19.20;1.00;;;19.18;48.90;101263.81;5026127;28;20455;-73
2022/07/14 08:05:19;;;;;;;4.93;1.60;;;19.10;1.00;;;19.50;48.09;101259.41;5028810;28;20472;-73
2022/07/14 08:08:10;;;;;;;4.13;1.20;;;19.30;1.00;;;19.55;47.96;101257.81;5024643;28;20470;-73
2022/07/14 08:10:39;;;;;;;5.30;1.57;;;19.40;1.00;;;19.47;48.52;101270.06;5028863;28;20495;-74
2022/07/14 08:13:09;;;;;;;2.70;1.63;;;19.40;1.00;;;19.44;49.07;101257.69;5029115;28;21016;-74
2022/07/14 08:15:39;;;;;;;2.10;0.80;;;19.30;1.00;;;19.59;47.48;101243.34;5028726;28;20832;-73
2022/07/14 08:18:09;;;;;;;6.93;1.23;;;19.50;1.00;;;19.73;47.51;101254.78;5028805;28;20450;-73
2022/07/14 08:20:38;;;;;;;7.50;1.47;;;19.60;1.00;;;19.78;47.14;101255.69;5028635;28;21098;-73
2022/07/14 08:23:09;;;;;;;8.10;2.00;;;19.70;1.00;;;19.83;46.83;101242.03;5029066;28;20426;-73
2022/07/14 08:25:38;;;;;;;2.33;1.23;;;19.70;1.00;;;19.93;47.25;101246.81;5029477;28;20421;-73
2022/07/14 08:28:08;;;;;;;1.30;0.93;;;19.80;1.00;;;20.00;46.77;101239.19;5028943;28;20432;-73
2022/07/14 08:30:37;;;;;;;2.60;1.10;;;19.90;1.00;;;19.70;45.24;101245.16;5028661;28;20474;-72
2022/07/14 08:33:07;;;;;;;3.10;1.27;;;19.70;1.00;;;19.71;45.41;101246.78;5028593;28;20430;-72
2022/07/14 08:35:37;;;;;;;5.60;1.27;;;19.70;1.00;;;19.90;45.73;101239.91;5028785;28;20395;-73
2022/07/14 08:38:07;;;;;;;2.23;1.07;;;19.80;1.00;;;19.98;45.82;101241.38;5029220;28;21024;-73
2022/07/14 08:40:41;;;;;;;1.87;1.03;;;19.80;1.00;;;20.04;45.73;101236.78;5034404;28;20515;-73
2022/07/14 08:43:14;;;;;;;3.13;1.00;;;19.80;1.00;;;20.21;45.58;101235.59;5041985;28;20475;-73
2022/07/14 08:45:44;;;;;;;1.73;1.00;;;19.90;1.00;;;20.46;45.46;101229.59;5034958;28;20694;-72
2022/07/14 08:48:16;;;;;;;4.20;1.10;;;20.20;1.00;;;20.73;44.32;101232.31;5037910;28;20998;-73
2022/07/14 08:50:46;;;;;;;2.43;0.90;;;20.50;1.00;;;20.66;43.06;101226.22;5038317;28;21032;-73
2022/07/14 08:53:16;;;;;;;5.47;0.90;;;20.60;1.00;;;20.33;43.35;101228.06;5040076;28;20454;-74
2022/07/14 08:55:48;;;;;;;5.53;1.43;;;20.40;1.00;;;20.65;43.03;101224.53;5042039;28;20913;-73
2022/07/14 08:58:17;;;;;;;2.60;1.17;;;20.50;1.00;;;20.71;42.87;101215.25;5043603;28;20410;-73
2022/07/14 09:00:46;;;;;;;2.60;1.50;;;20.60;1.00;;;20.77;43.78;101223.28;5043579;28;20781;-73
2022/07/14 09:03:16;;;;;;;3.93;1.07;;;20.60;1.00;;;20.32;42.76;101220.09;5044144;28;20425;-73
2022/07/14 09:06:06;;;;;;;5.30;1.10;;;20.30;1.00;;;20.39;41.93;101213.28;5038720;28;20426;-72
2022/07/14 09:08:55;;;;;;;2.50;0.80;;;20.30;1.00;;;20.80;42.07;101210.94;5038168;28;20769;-73
2022/07/14 09:11:26;;;;;;;1.77;0.70;;;20.50;1.00;;;20.81;41.51;101218.09;5039397;28;20470;-72
2022/07/14 09:14:08;;;;;;;2.03;1.10;;;20.60;1.00;;;20.62;42.25;101216.81;5041503;28;20427;-73
2022/07/14 09:16:38;;;;;;;4.53;1.27;;;20.60;1.00;;;20.87;41.99;101208.78;5039618;28;20409;-73
2022/07/14 09:19:09;;;;;;;2.17;1.20;;;20.70;1.00;;;20.89;41.10;101206.59;5037965;28;20411;-73
2022/07/14 09:21:40;;;;;;;1.30;0.77;;;20.70;1.00;;;21.12;41.79;101200.72;5034582;28;20398;-72
2022/07/14 09:24:14;;;;;;;2.30;0.87;;;21.00;1.00;;;21.36;40.95;101192.09;5038112;28;20401;-72
2022/07/14 09:26:47;;;;;;;2.20;0.90;;;21.10;1.00;;;21.32;40.28;101190.97;5041270;28;20818;-73
2022/07/14 09:29:23;;;;;;;1.50;0.80;;;21.10;1.00;;;20.77;39.76;101189.44;5037143;28;20429;-72
2022/07/14 09:31:52;;;;;;;2.70;0.80;;;20.90;1.00;;;20.82;40.20;101181.22;5035067;28;20554;-73
2022/07/14 09:34:29;;;;;;;3.63;0.90;;;20.80;1.00;;;21.04;39.19;101181.97;5033879;28;20410;-72
2022/07/14 09:37:13;;;;;;;2.93;0.80;;;20.90;1.00;;;20.90;38.00;101179.94;5043452;28;20428;-74
2022/07/14 09:39:54;;;;;;;1.70;0.80;;;20.80;1.00;;;20.85;38.45;101172.47;5041697;28;20419;-73
2022/07/14 09:42:53;;;;;;;4.93;1.00;;;20.70;1.00;;;21.34;38.58;101173.09;5036724;28;20624;-72
2022/07/14 09:45:25;;;;;;;1.20;0.70;;;21.10;1.00;;;21.19;37.49;101176.59;5036440;28;20776;-72
2022/07/14 09:48:07;;;;;;;3.07;0.90;;;21.10;1.00;;;21.55;37.39;101171.25;5037054;28;20415;-72
2022/07/14 09:50:47;;;;;;;2.10;1.57;;;21.30;1.00;;;21.11;40.75;101174.28;5037626;28;20430;-71
2022/07/14 09:53:25;;;;;;;3.33;0.90;;;21.20;1.00;;;21.12;37.03;101158.59;5037763;28;20428;-73
2022/07/14 09:56:00;;;;;;;2.30;1.23;;;21.10;1.00;;;21.08;39.52;101160.25;5038209;28;20780;-72
2022/07/14 09:58:33;;;;;;;3.43;1.30;;;21.00;1.00;;;21.19;39.60;101159.25;5034498;28;20434;-72
2022/07/14 10:01:08;;;;;;;2.53;0.90;;;21.10;1.00;;;21.79;38.93;101158.69;5038312;28;20391;-73
2022/07/14 10:03:41;;;;;;;3.53;0.80;;;21.50;1.00;;;21.24;39.43;101148.28;5043398;28;20472;-73
2022/07/14 10:06:12;;;;;;;3.40;1.23;;;21.30;1.00;;;21.55;39.89;101158.31;5030979;28;20439;-73
2022/07/14 10:09:04;;;;;;;3.30;1.00;;;21.40;1.00;;;21.90;39.78;101149.38;5041135;28;20930;-73
2022/07/14 10:11:34;;;;;;;2.00;1.00;;;21.60;1.00;;;22.56;38.52;101146.75;5042509;28;20529;-72
2022/07/14 10:14:05;;;;;;;5.43;1.30;;;22.10;1.00;;;22.77;38.51;101148.44;5052641;28;20440;-72
2022/07/14 10:16:36;;;;;;;2.20;1.10;;;22.30;1.00;;;22.56;38.54;101143.19;5041928;28;20486;-72
2022/07/14 10:19:06;;;;;;;2.50;1.10;;;22.20;1.00;;;22.47;38.43;101149.22;5040661;28;20405;-72
2022/07/14 10:21:43;;;;;;;3.20;0.73;;;22.20;1.00;;;22.60;37.41;101160.84;5039113;28;20917;-72
2022/07/14 10:24:13;;;;;;;5.00;0.93;;;22.40;1.00;;;22.33;37.93;101158.31;5036505;28;20453;-72
2022/07/14 10:26:46;;;;;;;2.63;0.70;;;22.30;1.00;;;22.50;37.43;101153.38;5044401;28;20410;-71
2022/07/14 10:29:16;;;;;;;1.80;0.80;;;22.30;1.00;;;22.56;37.61;101155.00;5035489;28;20414;-72
2022/07/14 10:32:08;;;;;;;1.67;1.10;;;22.40;1.00;;;22.60;36.77;101153.38;5037505;28;20452;-73
2022/07/14 10:34:51;;;;;;;1.40;0.90;;;22.40;1.00;;;22.58;36.49;101152.00;5035893;28;20434;-73
2022/07/14 10:37:35;;;;;;;2.50;0.90;;;22.40;1.00;;;22.42;37.02;101145.63;5041174;28;20526;-72
2022/07/14 10:40:14;;;;;;;2.43;0.90;;;22.30;1.00;;;22.87;36.41;101148.44;5043870;28;20406;-72
2022/07/14 10:42:58;;;;;;;2.60;1.00;;;22.60;1.00;;;22.98;36.12;101153.94;5042686;28;20451;-73
2022/07/14 10:45:30;;;;;;;1.10;0.57;;;22.70;1.00;;;23.22;34.74;101149.47;5043439;28;20426;-73
2022/07/14 10:47:59;;;;;;;7.83;1.30;;;23.00;1.00;;;22.77;35.04;101151.19;5038090;28;20432;-74